sensor_id;sensor_type;location;lat;lon;timestamp;P1;durP1;ratioP1;P2;durP2;ratioP2
84840;SDS011;75088;53.114;18.040;2024-02-16T00:00:44;43.20;;;25.10;;
84840;SDS011;75088;53.114;18.040;2024-02-16T00:02:10;45.10;;;26.80;;
84840;SDS011;75088;53.114;18.040;2024-02-16T00:03:20;43.30;;;26.50;;
84840;SDS011;75088;53.114;18.040;2024-02-16T00:04:28;44.30;;;27.70;;
84840;SDS011;75088;53.114;18.040;2024-02-16T00:05:35;46.10;;;26.20;;
84840;SDS011;75088;53.114;18.040;2024-02-16T00:06:43;43.00;;;26.60;;
84840;SDS011;75088;53.114;18.040;2024-02-16T00:07:52;44.90;;;26.50;;
84840;SDS011;75088;53.114;18.040;2024-02-16T00:08:59;40.30;;;26.30;;
84840;SDS011;75088;53.114;18.040;2024-02-16T00:10:08;42.70;;;28.50;;
84840;SDS011;75088;53.114;18.040;2024-02-16T00:11:17;43.80;;;26.60;;
84840;SDS011;75088;53.114;18.040;2024-02-16T00:12:25;41.80;;;24.90;;
84840;SDS011;75088;53.114;18.040;2024-02-16T00:13:33;40.20;;;25.00;;
84840;SDS011;75088;53.114;18.040;2024-02-16T00:14:41;41.80;;;25.50;;
84840;SDS011;75088;53.114;18.040;2024-02-16T00:15:50;40.30;;;23.70;;
84840;SDS011;75088;53.114;18.040;2024-02-16T00:16:58;41.30;;;25.20;;
84840;SDS011;75088;53.114;18.040;2024-02-16T00:18:05;36.60;;;23.70;;
84840;SDS011;75088;53.114;18.040;2024-02-16T00:19:13;42.10;;;26.80;;
84840;SDS011;75088;53.114;18.040;2024-02-16T00:20:20;37.00;;;23.90;;
84840;SDS011;75088;53.114;18.040;2024-02-16T00:21:28;40.30;;;24.30;;
84840;SDS011;75088;53.114;18.040;2024-02-16T00:22:36;41.70;;;26.90;;
84840;SDS011;75088;53.114;18.040;2024-02-16T00:23:43;38.60;;;23.60;;
84840;SDS011;75088;53.114;18.040;2024-02-16T00:24:51;41.10;;;24.50;;
84840;SDS011;75088;53.114;18.040;2024-02-16T00:25:59;40.50;;;25.10;;
84840;SDS011;75088;53.114;18.040;2024-02-16T00:27:11;41.10;;;25.00;;
84840;SDS011;75088;53.114;18.040;2024-02-16T00:28:19;41.70;;;25.00;;
84840;SDS011;75088;53.114;18.040;2024-02-16T00:29:26;44.80;;;27.50;;
84840;SDS011;75088;53.114;18.040;2024-02-16T00:30:34;38.50;;;24.00;;
84840;SDS011;75088;53.114;18.040;2024-02-16T00:31:42;45.60;;;24.90;;
84840;SDS011;75088;53.114;18.040;2024-02-16T00:32:50;41.90;;;24.80;;
84840;SDS011;75088;53.114;18.040;2024-02-16T00:33:58;41.60;;;24.10;;
84840;SDS011;75088;53.114;18.040;2024-02-16T00:35:06;38.10;;;24.60;;
84840;SDS011;75088;53.114;18.040;2024-02-16T00:36:15;40.10;;;23.50;;
84840;SDS011;75088;53.114;18.040;2024-02-16T00:37:23;42.80;;;25.30;;
84840;SDS011;75088;53.114;18.040;2024-02-16T00:38:31;39.40;;;23.90;;
84840;SDS011;75088;53.114;18.040;2024-02-16T00:39:39;41.80;;;27.00;;
84840;SDS011;75088;53.114;18.040;2024-02-16T00:40:46;42.10;;;24.30;;
84840;SDS011;75088;53.114;18.040;2024-02-16T00:41:54;39.30;;;24.70;;
84840;SDS011;75088;53.114;18.040;2024-02-16T00:43:02;41.00;;;23.10;;
84840;SDS011;75088;53.114;18.040;2024-02-16T00:44:10;38.30;;;22.80;;
84840;SDS011;75088;53.114;18.040;2024-02-16T00:45:18;38.80;;;24.30;;
84840;SDS011;75088;53.114;18.040;2024-02-16T00:46:25;39.60;;;23.00;;
84840;SDS011;75088;53.114;18.040;2024-02-16T00:47:33;34.70;;;22.20;;
84840;SDS011;75088;53.114;18.040;2024-02-16T00:48:41;38.60;;;23.40;;
84840;SDS011;75088;53.114;18.040;2024-02-16T00:49:50;37.60;;;23.80;;
84840;SDS011;75088;53.114;18.040;2024-02-16T00:50:58;40.20;;;24.40;;
84840;SDS011;75088;53.114;18.040;2024-02-16T00:52:06;37.50;;;23.10;;
84840;SDS011;75088;53.114;18.040;2024-02-16T00:53:14;38.60;;;23.60;;
84840;SDS011;75088;53.114;18.040;2024-02-16T00:54:23;40.10;;;23.30;;
84840;SDS011;75088;53.114;18.040;2024-02-16T00:55:31;35.60;;;22.90;;
84840;SDS011;75088;53.114;18.040;2024-02-16T00:56:38;37.60;;;23.30;;
84840;SDS011;75088;53.114;18.040;2024-02-16T00:57:46;34.20;;;22.80;;
84840;SDS011;75088;53.114;18.040;2024-02-16T00:58:53;36.20;;;22.50;;
84840;SDS011;75088;53.114;18.040;2024-02-16T01:00:01;36.80;;;22.10;;
84840;SDS011;75088;53.114;18.040;2024-02-16T01:01:09;34.10;;;21.10;;
84840;SDS011;75088;53.114;18.040;2024-02-16T01:02:18;34.90;;;22.10;;
84840;SDS011;75088;53.114;18.040;2024-02-16T01:03:26;35.00;;;23.10;;
84840;SDS011;75088;53.114;18.040;2024-02-16T01:04:34;36.00;;;22.10;;
84840;SDS011;75088;53.114;18.040;2024-02-16T01:05:42;37.30;;;23.00;;
84840;SDS011;75088;53.114;18.040;2024-02-16T01:06:50;36.10;;;22.30;;
84840;SDS011;75088;53.114;18.040;2024-02-16T01:07:58;34.20;;;20.90;;
84840;SDS011;75088;53.114;18.040;2024-02-16T01:09:05;36.00;;;23.90;;
84840;SDS011;75088;53.114;18.040;2024-02-16T01:10:13;36.70;;;23.80;;
84840;SDS011;75088;53.114;18.040;2024-02-16T01:11:20;39.30;;;24.40;;
84840;SDS011;75088;53.114;18.040;2024-02-16T01:12:28;39.00;;;23.50;;
84840;SDS011;75088;53.114;18.040;2024-02-16T01:13:36;38.10;;;24.40;;
84840;SDS011;75088;53.114;18.040;2024-02-16T01:14:44;37.70;;;23.30;;
84840;SDS011;75088;53.114;18.040;2024-02-16T01:15:52;40.10;;;23.60;;
84840;SDS011;75088;53.114;18.040;2024-02-16T01:17:00;37.00;;;22.20;;
84840;SDS011;75088;53.114;18.040;2024-02-16T01:18:07;37.40;;;23.00;;
84840;SDS011;75088;53.114;18.040;2024-02-16T01:19:15;39.90;;;23.20;;
84840;SDS011;75088;53.114;18.040;2024-02-16T01:20:23;44.40;;;26.00;;
84840;SDS011;75088;53.114;18.040;2024-02-16T01:21:31;38.70;;;26.20;;
84840;SDS011;75088;53.114;18.040;2024-02-16T01:22:39;37.70;;;22.30;;
84840;SDS011;75088;53.114;18.040;2024-02-16T01:23:47;37.40;;;23.30;;
84840;SDS011;75088;53.114;18.040;2024-02-16T01:24:55;38.60;;;23.60;;
84840;SDS011;75088;53.114;18.040;2024-02-16T01:26:02;39.00;;;23.70;;
84840;SDS011;75088;53.114;18.040;2024-02-16T01:27:10;38.20;;;23.10;;
84840;SDS011;75088;53.114;18.040;2024-02-16T01:28:18;38.20;;;24.50;;
84840;SDS011;75088;53.114;18.040;2024-02-16T01:29:26;39.70;;;23.70;;
84840;SDS011;75088;53.114;18.040;2024-02-16T01:30:33;41.60;;;25.60;;
84840;SDS011;75088;53.114;18.040;2024-02-16T01:31:41;39.70;;;26.30;;
84840;SDS011;75088;53.114;18.040;2024-02-16T01:32:49;32.60;;;22.30;;
84840;SDS011;75088;53.114;18.040;2024-02-16T01:33:56;37.10;;;23.40;;
84840;SDS011;75088;53.114;18.040;2024-02-16T01:35:05;38.20;;;24.60;;
84840;SDS011;75088;53.114;18.040;2024-02-16T01:36:13;37.90;;;22.60;;
84840;SDS011;75088;53.114;18.040;2024-02-16T01:37:20;38.40;;;23.40;;
84840;SDS011;75088;53.114;18.040;2024-02-16T01:38:27;39.00;;;23.90;;
84840;SDS011;75088;53.114;18.040;2024-02-16T01:39:35;36.70;;;23.80;;
84840;SDS011;75088;53.114;18.040;2024-02-16T01:40:41;39.80;;;24.90;;
84840;SDS011;75088;53.114;18.040;2024-02-16T01:41:49;38.40;;;23.10;;
84840;SDS011;75088;53.114;18.040;2024-02-16T01:42:56;38.30;;;24.70;;
84840;SDS011;75088;53.114;18.040;2024-02-16T01:44:03;37.90;;;24.70;;
84840;SDS011;75088;53.114;18.040;2024-02-16T01:45:11;39.30;;;22.70;;
84840;SDS011;75088;53.114;18.040;2024-02-16T01:46:19;37.00;;;23.90;;
84840;SDS011;75088;53.114;18.040;2024-02-16T01:47:27;37.60;;;22.90;;
84840;SDS011;75088;53.114;18.040;2024-02-16T01:48:35;35.70;;;21.90;;
84840;SDS011;75088;53.114;18.040;2024-02-16T01:49:43;35.70;;;22.90;;
84840;SDS011;75088;53.114;18.040;2024-02-16T01:50:50;38.60;;;22.80;;
84840;SDS011;75088;53.114;18.040;2024-02-16T01:51:58;37.90;;;23.80;;
84840;SDS011;75088;53.114;18.040;2024-02-16T01:53:07;35.90;;;22.40;;
84840;SDS011;75088;53.114;18.040;2024-02-16T01:54:15;38.80;;;24.50;;
84840;SDS011;75088;53.114;18.040;2024-02-16T01:55:23;39.20;;;26.30;;
84840;SDS011;75088;53.114;18.040;2024-02-16T01:56:31;40.70;;;23.40;;
84840;SDS011;75088;53.114;18.040;2024-02-16T01:57:38;39.20;;;23.40;;
84840;SDS011;75088;53.114;18.040;2024-02-16T01:58:47;37.10;;;23.20;;
84840;SDS011;75088;53.114;18.040;2024-02-16T01:59:55;35.30;;;23.40;;
84840;SDS011;75088;53.114;18.040;2024-02-16T02:01:03;40.70;;;23.40;;
84840;SDS011;75088;53.114;18.040;2024-02-16T02:02:10;39.00;;;25.20;;
84840;SDS011;75088;53.114;18.040;2024-02-16T02:03:18;37.40;;;24.50;;
84840;SDS011;75088;53.114;18.040;2024-02-16T02:04:26;32.90;;;21.60;;
84840;SDS011;75088;53.114;18.040;2024-02-16T02:05:34;38.30;;;24.60;;
84840;SDS011;75088;53.114;18.040;2024-02-16T02:06:48;35.30;;;22.50;;
84840;SDS011;75088;53.114;18.040;2024-02-16T02:07:55;37.00;;;24.20;;
84840;SDS011;75088;53.114;18.040;2024-02-16T02:09:03;39.60;;;23.20;;
84840;SDS011;75088;53.114;18.040;2024-02-16T02:10:10;35.90;;;22.80;;
84840;SDS011;75088;53.114;18.040;2024-02-16T02:11:18;38.40;;;24.20;;
84840;SDS011;75088;53.114;18.040;2024-02-16T02:12:25;38.70;;;22.60;;
84840;SDS011;75088;53.114;18.040;2024-02-16T02:13:32;33.60;;;23.70;;
84840;SDS011;75088;53.114;18.040;2024-02-16T02:14:39;37.50;;;23.10;;
84840;SDS011;75088;53.114;18.040;2024-02-16T02:15:47;39.20;;;27.10;;
84840;SDS011;75088;53.114;18.040;2024-02-16T02:16:54;36.30;;;22.10;;
84840;SDS011;75088;53.114;18.040;2024-02-16T02:18:01;36.70;;;22.10;;
84840;SDS011;75088;53.114;18.040;2024-02-16T02:19:09;32.70;;;20.90;;
84840;SDS011;75088;53.114;18.040;2024-02-16T02:20:16;38.20;;;24.00;;
84840;SDS011;75088;53.114;18.040;2024-02-16T02:21:23;37.30;;;23.00;;
84840;SDS011;75088;53.114;18.040;2024-02-16T02:22:31;35.50;;;23.40;;
84840;SDS011;75088;53.114;18.040;2024-02-16T02:23:38;34.50;;;21.40;;
84840;SDS011;75088;53.114;18.040;2024-02-16T02:24:45;37.30;;;23.80;;
84840;SDS011;75088;53.114;18.040;2024-02-16T02:25:53;35.40;;;22.50;;
84840;SDS011;75088;53.114;18.040;2024-02-16T02:27:01;35.60;;;24.10;;
84840;SDS011;75088;53.114;18.040;2024-02-16T02:28:08;36.00;;;22.30;;
84840;SDS011;75088;53.114;18.040;2024-02-16T02:29:15;30.70;;;21.10;;
84840;SDS011;75088;53.114;18.040;2024-02-16T02:30:22;35.80;;;22.40;;
84840;SDS011;75088;53.114;18.040;2024-02-16T02:31:29;38.70;;;23.00;;
84840;SDS011;75088;53.114;18.040;2024-02-16T02:32:36;33.30;;;22.70;;
84840;SDS011;75088;53.114;18.040;2024-02-16T02:33:46;33.10;;;22.10;;
84840;SDS011;75088;53.114;18.040;2024-02-16T02:34:53;37.60;;;23.00;;
84840;SDS011;75088;53.114;18.040;2024-02-16T02:36:01;34.50;;;21.90;;
84840;SDS011;75088;53.114;18.040;2024-02-16T02:37:09;37.00;;;22.70;;
84840;SDS011;75088;53.114;18.040;2024-02-16T02:38:16;31.20;;;20.70;;
84840;SDS011;75088;53.114;18.040;2024-02-16T02:39:23;33.60;;;22.80;;
84840;SDS011;75088;53.114;18.040;2024-02-16T02:40:31;35.60;;;22.40;;
84840;SDS011;75088;53.114;18.040;2024-02-16T02:41:38;31.50;;;20.90;;
84840;SDS011;75088;53.114;18.040;2024-02-16T02:42:45;36.70;;;24.80;;
84840;SDS011;75088;53.114;18.040;2024-02-16T02:43:53;37.00;;;21.40;;
84840;SDS011;75088;53.114;18.040;2024-02-16T02:45:00;34.00;;;20.80;;
84840;SDS011;75088;53.114;18.040;2024-02-16T02:46:08;30.90;;;20.50;;
84840;SDS011;75088;53.114;18.040;2024-02-16T02:47:20;30.70;;;19.40;;
84840;SDS011;75088;53.114;18.040;2024-02-16T02:48:27;33.60;;;21.20;;
84840;SDS011;75088;53.114;18.040;2024-02-16T02:49:34;34.30;;;20.80;;
84840;SDS011;75088;53.114;18.040;2024-02-16T02:50:41;33.90;;;21.80;;
84840;SDS011;75088;53.114;18.040;2024-02-16T02:51:48;31.90;;;19.60;;
84840;SDS011;75088;53.114;18.040;2024-02-16T02:52:55;32.10;;;19.90;;
84840;SDS011;75088;53.114;18.040;2024-02-16T02:54:03;33.20;;;20.90;;
84840;SDS011;75088;53.114;18.040;2024-02-16T02:55:10;32.20;;;20.80;;
84840;SDS011;75088;53.114;18.040;2024-02-16T02:56:17;36.50;;;22.90;;
84840;SDS011;75088;53.114;18.040;2024-02-16T02:57:24;32.00;;;21.30;;
84840;SDS011;75088;53.114;18.040;2024-02-16T02:58:32;31.50;;;21.00;;
84840;SDS011;75088;53.114;18.040;2024-02-16T02:59:39;31.80;;;21.30;;
84840;SDS011;75088;53.114;18.040;2024-02-16T03:00:46;30.50;;;19.60;;
84840;SDS011;75088;53.114;18.040;2024-02-16T03:01:53;32.70;;;19.80;;
84840;SDS011;75088;53.114;18.040;2024-02-16T03:03:00;34.10;;;21.90;;
84840;SDS011;75088;53.114;18.040;2024-02-16T03:04:07;32.30;;;21.90;;
84840;SDS011;75088;53.114;18.040;2024-02-16T03:05:15;33.30;;;21.40;;
84840;SDS011;75088;53.114;18.040;2024-02-16T03:06:24;32.40;;;21.00;;
84840;SDS011;75088;53.114;18.040;2024-02-16T03:07:31;31.20;;;20.30;;
84840;SDS011;75088;53.114;18.040;2024-02-16T03:08:39;33.50;;;21.40;;
84840;SDS011;75088;53.114;18.040;2024-02-16T03:09:46;33.70;;;20.90;;
84840;SDS011;75088;53.114;18.040;2024-02-16T03:10:53;33.20;;;21.00;;
84840;SDS011;75088;53.114;18.040;2024-02-16T03:12:00;33.20;;;20.30;;
84840;SDS011;75088;53.114;18.040;2024-02-16T03:13:07;32.10;;;21.10;;
84840;SDS011;75088;53.114;18.040;2024-02-16T03:14:17;35.70;;;22.20;;
84840;SDS011;75088;53.114;18.040;2024-02-16T03:15:24;32.10;;;21.20;;
84840;SDS011;75088;53.114;18.040;2024-02-16T03:16:31;34.70;;;22.00;;
84840;SDS011;75088;53.114;18.040;2024-02-16T03:17:38;32.00;;;20.30;;
84840;SDS011;75088;53.114;18.040;2024-02-16T03:18:45;32.90;;;21.00;;
84840;SDS011;75088;53.114;18.040;2024-02-16T03:19:53;35.50;;;22.90;;
84840;SDS011;75088;53.114;18.040;2024-02-16T03:21:00;34.10;;;20.60;;
84840;SDS011;75088;53.114;18.040;2024-02-16T03:22:08;30.50;;;19.90;;
84840;SDS011;75088;53.114;18.040;2024-02-16T03:23:15;33.70;;;20.50;;
84840;SDS011;75088;53.114;18.040;2024-02-16T03:24:22;34.80;;;21.30;;
84840;SDS011;75088;53.114;18.040;2024-02-16T03:25:29;33.00;;;20.30;;
84840;SDS011;75088;53.114;18.040;2024-02-16T03:26:36;31.80;;;20.20;;
84840;SDS011;75088;53.114;18.040;2024-02-16T03:27:43;34.10;;;21.30;;
84840;SDS011;75088;53.114;18.040;2024-02-16T03:28:51;34.20;;;21.80;;
84840;SDS011;75088;53.114;18.040;2024-02-16T03:29:58;32.60;;;23.50;;
84840;SDS011;75088;53.114;18.040;2024-02-16T03:31:06;34.20;;;21.60;;
84840;SDS011;75088;53.114;18.040;2024-02-16T03:32:19;31.00;;;20.00;;
84840;SDS011;75088;53.114;18.040;2024-02-16T03:33:26;28.80;;;20.40;;
84840;SDS011;75088;53.114;18.040;2024-02-16T03:34:34;32.30;;;21.60;;
84840;SDS011;75088;53.114;18.040;2024-02-16T03:35:40;34.10;;;22.40;;
84840;SDS011;75088;53.114;18.040;2024-02-16T03:36:48;34.80;;;22.00;;
84840;SDS011;75088;53.114;18.040;2024-02-16T03:37:55;36.80;;;23.20;;
84840;SDS011;75088;53.114;18.040;2024-02-16T03:39:02;32.70;;;21.30;;
84840;SDS011;75088;53.114;18.040;2024-02-16T03:40:13;33.60;;;23.50;;
84840;SDS011;75088;53.114;18.040;2024-02-16T03:41:21;33.80;;;21.60;;
84840;SDS011;75088;53.114;18.040;2024-02-16T03:42:28;32.30;;;21.20;;
84840;SDS011;75088;53.114;18.040;2024-02-16T03:43:35;32.30;;;21.70;;
84840;SDS011;75088;53.114;18.040;2024-02-16T03:44:43;32.70;;;21.80;;
84840;SDS011;75088;53.114;18.040;2024-02-16T03:45:50;34.10;;;22.10;;
84840;SDS011;75088;53.114;18.040;2024-02-16T03:46:57;37.10;;;24.60;;
84840;SDS011;75088;53.114;18.040;2024-02-16T03:48:06;33.20;;;20.80;;
84840;SDS011;75088;53.114;18.040;2024-02-16T03:49:13;33.50;;;23.10;;
84840;SDS011;75088;53.114;18.040;2024-02-16T03:50:21;34.30;;;23.50;;
84840;SDS011;75088;53.114;18.040;2024-02-16T03:51:28;34.80;;;22.20;;
84840;SDS011;75088;53.114;18.040;2024-02-16T03:52:35;35.50;;;24.60;;
84840;SDS011;75088;53.114;18.040;2024-02-16T03:53:43;37.40;;;24.60;;
84840;SDS011;75088;53.114;18.040;2024-02-16T03:54:51;34.90;;;24.50;;
84840;SDS011;75088;53.114;18.040;2024-02-16T03:55:58;35.60;;;23.00;;
84840;SDS011;75088;53.114;18.040;2024-02-16T03:57:06;34.60;;;22.70;;
84840;SDS011;75088;53.114;18.040;2024-02-16T03:58:16;37.10;;;24.40;;
84840;SDS011;75088;53.114;18.040;2024-02-16T03:59:23;35.90;;;24.10;;
84840;SDS011;75088;53.114;18.040;2024-02-16T04:00:30;37.10;;;23.40;;
84840;SDS011;75088;53.114;18.040;2024-02-16T04:01:37;36.50;;;22.80;;
84840;SDS011;75088;53.114;18.040;2024-02-16T04:02:46;34.80;;;23.30;;
84840;SDS011;75088;53.114;18.040;2024-02-16T04:03:53;33.60;;;23.20;;
84840;SDS011;75088;53.114;18.040;2024-02-16T04:05:01;37.00;;;23.70;;
84840;SDS011;75088;53.114;18.040;2024-02-16T04:06:09;37.50;;;23.50;;
84840;SDS011;75088;53.114;18.040;2024-02-16T04:07:16;38.20;;;23.40;;
84840;SDS011;75088;53.114;18.040;2024-02-16T04:08:24;37.80;;;23.60;;
84840;SDS011;75088;53.114;18.040;2024-02-16T04:09:31;38.20;;;25.00;;
84840;SDS011;75088;53.114;18.040;2024-02-16T04:10:38;36.40;;;25.10;;
84840;SDS011;75088;53.114;18.040;2024-02-16T04:11:46;37.30;;;23.90;;
84840;SDS011;75088;53.114;18.040;2024-02-16T04:12:53;37.90;;;25.00;;
84840;SDS011;75088;53.114;18.040;2024-02-16T04:14:00;34.00;;;23.40;;
84840;SDS011;75088;53.114;18.040;2024-02-16T04:15:08;32.70;;;22.60;;
84840;SDS011;75088;53.114;18.040;2024-02-16T04:16:16;36.80;;;23.50;;
84840;SDS011;75088;53.114;18.040;2024-02-16T04:17:27;36.40;;;23.60;;
84840;SDS011;75088;53.114;18.040;2024-02-16T04:18:34;35.70;;;23.00;;
84840;SDS011;75088;53.114;18.040;2024-02-16T04:19:41;35.30;;;23.10;;
84840;SDS011;75088;53.114;18.040;2024-02-16T04:20:49;32.50;;;22.90;;
84840;SDS011;75088;53.114;18.040;2024-02-16T04:21:56;36.00;;;24.10;;
84840;SDS011;75088;53.114;18.040;2024-02-16T04:23:03;34.60;;;23.50;;
84840;SDS011;75088;53.114;18.040;2024-02-16T04:24:10;34.50;;;22.90;;
84840;SDS011;75088;53.114;18.040;2024-02-16T04:25:17;37.10;;;27.70;;
84840;SDS011;75088;53.114;18.040;2024-02-16T04:26:24;35.00;;;22.70;;
84840;SDS011;75088;53.114;18.040;2024-02-16T04:27:31;32.80;;;22.30;;
84840;SDS011;75088;53.114;18.040;2024-02-16T04:28:39;36.10;;;23.90;;
84840;SDS011;75088;53.114;18.040;2024-02-16T04:29:46;33.70;;;24.00;;
84840;SDS011;75088;53.114;18.040;2024-02-16T04:30:53;33.80;;;22.20;;
84840;SDS011;75088;53.114;18.040;2024-02-16T04:32:00;34.20;;;22.60;;
84840;SDS011;75088;53.114;18.040;2024-02-16T04:33:07;38.50;;;24.40;;
84840;SDS011;75088;53.114;18.040;2024-02-16T04:34:14;33.70;;;23.60;;
84840;SDS011;75088;53.114;18.040;2024-02-16T04:35:21;35.30;;;23.80;;
84840;SDS011;75088;53.114;18.040;2024-02-16T04:36:29;33.70;;;23.10;;
84840;SDS011;75088;53.114;18.040;2024-02-16T04:37:36;34.80;;;23.10;;
84840;SDS011;75088;53.114;18.040;2024-02-16T04:38:43;32.80;;;22.80;;
84840;SDS011;75088;53.114;18.040;2024-02-16T04:39:50;33.20;;;22.80;;
84840;SDS011;75088;53.114;18.040;2024-02-16T04:40:58;33.50;;;21.50;;
84840;SDS011;75088;53.114;18.040;2024-02-16T04:42:05;30.60;;;21.90;;
84840;SDS011;75088;53.114;18.040;2024-02-16T04:43:13;37.00;;;24.40;;
84840;SDS011;75088;53.114;18.040;2024-02-16T04:44:20;34.90;;;24.40;;
84840;SDS011;75088;53.114;18.040;2024-02-16T04:45:28;34.30;;;24.30;;
84840;SDS011;75088;53.114;18.040;2024-02-16T04:46:35;37.40;;;23.90;;
84840;SDS011;75088;53.114;18.040;2024-02-16T04:47:42;35.90;;;23.80;;
84840;SDS011;75088;53.114;18.040;2024-02-16T04:48:50;34.20;;;25.70;;
84840;SDS011;75088;53.114;18.040;2024-02-16T04:49:57;32.90;;;23.50;;
84840;SDS011;75088;53.114;18.040;2024-02-16T04:51:04;35.50;;;23.10;;
84840;SDS011;75088;53.114;18.040;2024-02-16T04:52:11;34.70;;;22.70;;
84840;SDS011;75088;53.114;18.040;2024-02-16T04:53:18;31.40;;;22.00;;
84840;SDS011;75088;53.114;18.040;2024-02-16T04:54:25;35.60;;;25.30;;
84840;SDS011;75088;53.114;18.040;2024-02-16T04:55:32;36.50;;;24.20;;
84840;SDS011;75088;53.114;18.040;2024-02-16T04:56:39;37.50;;;24.10;;
84840;SDS011;75088;53.114;18.040;2024-02-16T04:57:47;35.10;;;23.50;;
84840;SDS011;75088;53.114;18.040;2024-02-16T04:58:55;37.30;;;26.60;;
84840;SDS011;75088;53.114;18.040;2024-02-16T05:00:03;34.80;;;24.60;;
84840;SDS011;75088;53.114;18.040;2024-02-16T05:01:14;33.30;;;21.80;;
84840;SDS011;75088;53.114;18.040;2024-02-16T05:02:21;35.10;;;23.60;;
84840;SDS011;75088;53.114;18.040;2024-02-16T05:03:28;34.00;;;22.00;;
84840;SDS011;75088;53.114;18.040;2024-02-16T05:04:35;34.90;;;22.60;;
84840;SDS011;75088;53.114;18.040;2024-02-16T05:05:42;32.70;;;23.00;;
84840;SDS011;75088;53.114;18.040;2024-02-16T05:06:50;33.10;;;22.00;;
84840;SDS011;75088;53.114;18.040;2024-02-16T05:08:01;31.60;;;21.50;;
84840;SDS011;75088;53.114;18.040;2024-02-16T05:09:09;31.40;;;21.20;;
84840;SDS011;75088;53.114;18.040;2024-02-16T05:10:20;29.90;;;21.30;;
84840;SDS011;75088;53.114;18.040;2024-02-16T05:11:28;36.50;;;23.30;;
84840;SDS011;75088;53.114;18.040;2024-02-16T05:12:38;36.00;;;22.70;;
84840;SDS011;75088;53.114;18.040;2024-02-16T05:13:45;31.10;;;21.00;;
84840;SDS011;75088;53.114;18.040;2024-02-16T05:14:53;30.10;;;21.50;;
84840;SDS011;75088;53.114;18.040;2024-02-16T05:16:00;35.40;;;25.20;;
84840;SDS011;75088;53.114;18.040;2024-02-16T05:17:12;34.10;;;23.80;;
84840;SDS011;75088;53.114;18.040;2024-02-16T05:18:21;30.40;;;20.10;;
84840;SDS011;75088;53.114;18.040;2024-02-16T05:19:31;32.90;;;22.70;;
84840;SDS011;75088;53.114;18.040;2024-02-16T05:20:41;31.80;;;21.40;;
84840;SDS011;75088;53.114;18.040;2024-02-16T05:21:48;32.70;;;22.80;;
84840;SDS011;75088;53.114;18.040;2024-02-16T05:22:55;30.30;;;20.10;;
84840;SDS011;75088;53.114;18.040;2024-02-16T05:24:02;35.90;;;23.80;;
84840;SDS011;75088;53.114;18.040;2024-02-16T05:25:10;34.10;;;24.50;;
84840;SDS011;75088;53.114;18.040;2024-02-16T05:26:17;36.50;;;23.90;;
84840;SDS011;75088;53.114;18.040;2024-02-16T05:27:24;37.70;;;24.80;;
84840;SDS011;75088;53.114;18.040;2024-02-16T05:28:31;36.90;;;25.50;;
84840;SDS011;75088;53.114;18.040;2024-02-16T05:29:38;33.00;;;24.80;;
84840;SDS011;75088;53.114;18.040;2024-02-16T05:30:46;36.80;;;23.10;;
84840;SDS011;75088;53.114;18.040;2024-02-16T05:31:53;33.20;;;24.30;;
84840;SDS011;75088;53.114;18.040;2024-02-16T05:33:00;37.30;;;24.20;;
84840;SDS011;75088;53.114;18.040;2024-02-16T05:34:07;35.20;;;24.00;;
84840;SDS011;75088;53.114;18.040;2024-02-16T05:35:14;33.80;;;21.50;;
84840;SDS011;75088;53.114;18.040;2024-02-16T05:36:22;37.90;;;25.10;;
84840;SDS011;75088;53.114;18.040;2024-02-16T05:37:34;37.10;;;25.00;;
84840;SDS011;75088;53.114;18.040;2024-02-16T05:38:41;34.30;;;23.40;;
84840;SDS011;75088;53.114;18.040;2024-02-16T05:39:48;34.40;;;24.60;;
84840;SDS011;75088;53.114;18.040;2024-02-16T05:41:01;36.40;;;25.00;;
84840;SDS011;75088;53.114;18.040;2024-02-16T05:42:08;37.00;;;24.70;;
84840;SDS011;75088;53.114;18.040;2024-02-16T05:43:15;34.40;;;24.10;;
84840;SDS011;75088;53.114;18.040;2024-02-16T05:44:22;38.70;;;25.10;;
84840;SDS011;75088;53.114;18.040;2024-02-16T05:45:30;35.80;;;25.60;;
84840;SDS011;75088;53.114;18.040;2024-02-16T05:46:39;37.00;;;25.20;;
84840;SDS011;75088;53.114;18.040;2024-02-16T05:47:46;37.20;;;25.30;;
84840;SDS011;75088;53.114;18.040;2024-02-16T05:48:54;41.80;;;31.40;;
84840;SDS011;75088;53.114;18.040;2024-02-16T05:50:02;37.80;;;27.80;;
84840;SDS011;75088;53.114;18.040;2024-02-16T05:51:10;38.40;;;25.70;;
84840;SDS011;75088;53.114;18.040;2024-02-16T05:52:18;36.10;;;25.20;;
84840;SDS011;75088;53.114;18.040;2024-02-16T05:53:27;36.00;;;25.10;;
84840;SDS011;75088;53.114;18.040;2024-02-16T05:54:34;36.10;;;24.60;;
84840;SDS011;75088;53.114;18.040;2024-02-16T05:55:42;37.60;;;24.20;;
84840;SDS011;75088;53.114;18.040;2024-02-16T05:56:51;38.50;;;25.50;;
84840;SDS011;75088;53.114;18.040;2024-02-16T05:57:59;38.40;;;26.50;;
84840;SDS011;75088;53.114;18.040;2024-02-16T05:59:08;35.90;;;24.50;;
84840;SDS011;75088;53.114;18.040;2024-02-16T06:00:16;37.40;;;25.20;;
84840;SDS011;75088;53.114;18.040;2024-02-16T06:01:25;37.70;;;23.90;;
84840;SDS011;75088;53.114;18.040;2024-02-16T06:02:33;33.40;;;23.00;;
84840;SDS011;75088;53.114;18.040;2024-02-16T06:03:41;37.60;;;24.70;;
84840;SDS011;75088;53.114;18.040;2024-02-16T06:04:49;37.50;;;24.30;;
84840;SDS011;75088;53.114;18.040;2024-02-16T06:05:56;36.20;;;23.80;;
84840;SDS011;75088;53.114;18.040;2024-02-16T06:07:03;41.00;;;25.30;;
84840;SDS011;75088;53.114;18.040;2024-02-16T06:08:11;40.00;;;24.70;;
84840;SDS011;75088;53.114;18.040;2024-02-16T06:09:19;42.70;;;25.20;;
84840;SDS011;75088;53.114;18.040;2024-02-16T06:10:26;42.10;;;26.20;;
84840;SDS011;75088;53.114;18.040;2024-02-16T06:11:33;36.60;;;23.30;;
84840;SDS011;75088;53.114;18.040;2024-02-16T06:12:43;35.40;;;23.20;;
84840;SDS011;75088;53.114;18.040;2024-02-16T06:13:50;40.80;;;25.20;;
84840;SDS011;75088;53.114;18.040;2024-02-16T06:14:58;39.10;;;24.70;;
84840;SDS011;75088;53.114;18.040;2024-02-16T06:16:06;42.80;;;24.30;;
84840;SDS011;75088;53.114;18.040;2024-02-16T06:17:14;39.00;;;24.80;;
84840;SDS011;75088;53.114;18.040;2024-02-16T06:18:22;39.00;;;25.00;;
84840;SDS011;75088;53.114;18.040;2024-02-16T06:19:29;37.60;;;26.20;;
84840;SDS011;75088;53.114;18.040;2024-02-16T06:20:36;44.80;;;29.50;;
84840;SDS011;75088;53.114;18.040;2024-02-16T06:21:43;41.20;;;26.30;;
84840;SDS011;75088;53.114;18.040;2024-02-16T06:22:50;46.40;;;32.00;;
84840;SDS011;75088;53.114;18.040;2024-02-16T06:23:57;41.40;;;26.90;;
84840;SDS011;75088;53.114;18.040;2024-02-16T06:25:05;42.30;;;27.40;;
84840;SDS011;75088;53.114;18.040;2024-02-16T06:26:13;45.10;;;26.30;;
84840;SDS011;75088;53.114;18.040;2024-02-16T06:27:20;41.80;;;25.50;;
84840;SDS011;75088;53.114;18.040;2024-02-16T06:28:27;43.30;;;25.70;;
84840;SDS011;75088;53.114;18.040;2024-02-16T06:29:35;42.60;;;24.80;;
84840;SDS011;75088;53.114;18.040;2024-02-16T06:30:42;36.70;;;26.50;;